Time;durP1;ratioP1;P1;durP2;ratioP2;P2;SDS_P1;SDS_P2;PMS_P1;PMS_P2;Temp;Humidity;BMP_temperature;BMP_pressure;BME280_temperature;BME280_humidity;BME280_pressure;Samples;Min_cycle;Max_cycle;Signal;HPM_P1;HPM_P2
2022/05/20 00:00:22;;;;;;;27.10;24.30;;;;;;;;;;4996355;28;20205;-72
2022/05/20 00:02:51;;;;;;;30.45;27.40;;;;;;;;;;4994716;28;20268;-72
2022/05/20 00:05:19;;;;;;;32.00;28.90;;;;;;;;;;4995847;28;20229;-71
2022/05/20 00:07:48;;;;;;;29.43;26.53;;;;;;;;;;4996074;28;20291;-71
2022/05/20 00:10:18;;;;;;;29.67;25.90;;;;;;;;;;4995737;28;20290;-72
2022/05/20 00:12:47;;;;;;;32.53;28.50;;;;;;;;;;4994605;28;20256;-71
2022/05/20 00:15:21;;;;;;;30.70;27.70;;;;;;;;;;4995390;28;20695;-72
2022/05/20 00:17:50;;;;;;;33.03;29.57;;;;;;;;;;4996087;28;20220;-71
2022/05/20 00:20:19;;;;;;;31.70;27.90;;;;;;;;;;4995866;28;20615;-72
2022/05/20 00:22:48;;;;;;;31.43;28.23;;;;;;;;;;4995471;28;20208;-71
2022/05/20 00:28:04;;;;;;;30.00;26.87;;;;;;;;;;4995349;28;20225;-72
2022/05/20 00:30:33;;;;;;;30.60;27.10;;;;;;;;;;4993863;28;20229;-71
2022/05/20 00:33:02;;;;;;;29.97;26.77;;;;;;;;;;4991970;28;20734;-71
2022/05/20 00:35:31;;;;;;;34.30;30.57;;;;;;;;;;4995840;28;20205;-71
2022/05/20 00:37:59;;;;;;;33.03;29.57;;;;;;;;;;4995862;28;20312;-72
2022/05/20 00:40:29;;;;;;;32.40;29.03;;;;;;;;;;4995078;28;20209;-71
2022/05/20 00:43:15;;;;;;;33.17;28.97;;;;;;;;;;4995730;28;20259;-71
2022/05/20 00:45:45;;;;;;;33.90;29.50;;;;;;;;;;4994374;28;20661;-71
2022/05/20 00:48:14;;;;;;;32.47;29.07;;;;;;;;;;4995039;28;20592;-73
2022/05/20 00:50:44;;;;;;;33.93;28.87;;;;;;;;;;4993960;28;20606;-71
2022/05/20 00:53:14;;;;;;;31.37;28.17;;;;;;;;;;4995447;28;20212;-71
2022/05/20 00:55:44;;;;;;;32.40;28.97;;;;;;;;;;4995524;28;20596;-72
2022/05/20 00:58:15;;;;;;;33.03;28.40;;;;;;;;;;4995592;28;20243;-72
2022/05/20 01:00:45;;;;;;;31.57;28.43;;;;;;;;;;4992523;28;20619;-71
2022/05/20 01:03:15;;;;;;;32.23;28.60;;;;;;;;;;4995079;28;20236;-71
2022/05/20 01:05:45;;;;;;;33.90;29.63;;;;;;;;;;4995046;28;20258;-71
2022/05/20 01:08:14;;;;;;;32.03;28.67;;;;;;;;;;4995147;28;20259;-72
2022/05/20 01:10:44;;;;;;;33.27;29.83;;;;;;;;;;4994480;28;20268;-71
2022/05/20 01:13:14;;;;;;;33.83;29.63;;;;;;;;;;4993832;28;20197;-72
2022/05/20 01:15:42;;;;;;;32.20;28.83;;;;;;;;;;4993968;28;20264;-72
2022/05/20 01:18:11;;;;;;;33.30;29.33;;;;;;;;;;4994626;28;20257;-72
2022/05/20 01:20:45;;;;;;;32.20;28.43;;;;;;;;;;4994737;28;20595;-72
2022/05/20 01:23:16;;;;;;;34.17;30.17;;;;;;;;;;4992096;28;20293;-71
2022/05/20 01:25:45;;;;;;;32.47;29.07;;;;;;;;;;4992904;28;20263;-71
2022/05/20 01:28:14;;;;;;;32.30;28.80;;;;;;;;;;4993962;28;20287;-72
2022/05/20 01:30:45;;;;;;;33.50;29.87;;;;;;;;;;4994048;28;20573;-71
2022/05/20 01:33:18;;;;;;;36.30;31.03;;;;;;;;;;4992808;28;20213;-72
2022/05/20 01:35:47;;;;;;;34.70;30.97;;;;;;;;;;4993994;28;20606;-72
2022/05/20 01:38:17;;;;;;;34.37;30.57;;;;;;;;;;4994558;28;20221;-72
2022/05/20 01:40:46;;;;;;;34.30;30.80;;;;;;;;;;4993991;28;20205;-71
2022/05/20 01:43:20;;;;;;;34.23;30.33;;;;;;;;;;4991755;28;20215;-71
2022/05/20 01:45:52;;;;;;;36.33;32.43;;;;;;;;;;4992128;28;20205;-71
2022/05/20 01:48:25;;;;;;;35.17;30.67;;;;;;;;;;4994155;28;20287;-72
2022/05/20 01:50:55;;;;;;;33.90;30.40;;;;;;;;;;4991695;28;20202;-72
2022/05/20 01:53:29;;;;;;;39.37;31.43;;;;;;;;;;4990927;28;20649;-71
2022/05/20 01:56:01;;;;;;;34.80;30.50;;;;;;;;;;4993740;28;20205;-71
2022/05/20 01:58:33;;;;;;;32.00;28.60;;;;;;;;;;4994361;28;20279;-72
2022/05/20 02:01:04;;;;;;;32.43;28.93;;;;;;;;;;4993200;28;20202;-72
2022/05/20 02:03:34;;;;;;;32.03;28.67;;;;;;;;;;4992848;28;20656;-72
2022/05/20 02:06:06;;;;;;;30.57;27.27;;;;;;;;;;4994203;28;20217;-72
2022/05/20 02:08:39;;;;;;;35.67;28.63;;;;;;;;;;4993437;28;20237;-72
2022/05/20 02:11:09;;;;;;;32.23;28.73;;;;;;;;;;4979024;28;20225;-71
2022/05/20 02:13:40;;;;;;;33.23;29.73;;;;;;;;;;4992040;28;20209;-72
2022/05/20 02:16:10;;;;;;;31.57;28.17;;;;;;;;;;4993317;28;20209;-72
2022/05/20 02:18:42;;;;;;;34.17;29.57;;;;;;;;;;4993734;28;20224;-72
2022/05/20 02:21:12;;;;;;;31.93;28.53;;;;;;;;;;4993864;28;20205;-72
2022/05/20 02:23:44;;;;;;;32.63;28.80;;;;;;;;;;4991116;28;20236;-72
2022/05/20 02:26:15;;;;;;;34.77;30.00;;;;;;;;;;4993772;28;20201;-72
2022/05/20 02:28:45;;;;;;;34.20;30.47;;;;;;;;;;4992339;28;20276;-71
2022/05/20 02:31:15;;;;;;;33.37;29.27;;;;;;;;;;4991861;28;20201;-72
2022/05/20 02:33:44;;;;;;;35.07;30.67;;;;;;;;;;4993442;28;20211;-71
2022/05/20 02:36:18;;;;;;;32.20;28.17;;;;;;;;;;4993762;28;20260;-71
2022/05/20 02:38:48;;;;;;;30.83;27.73;;;;;;;;;;4992134;28;20700;-71
2022/05/20 02:41:17;;;;;;;30.70;27.57;;;;;;;;;;4993563;28;20666;-72
2022/05/20 02:43:45;;;;;;;31.30;28.10;;;;;;;;;;4991849;28;20205;-71
2022/05/20 02:46:14;;;;;;;31.57;27.87;;;;;;;;;;4993088;28;20626;-71
2022/05/20 02:48:43;;;;;;;30.77;27.53;;;;;;;;;;4993590;28;20221;-72
2022/05/20 02:51:11;;;;;;;30.10;26.37;;;;;;;;;;4993634;28;20268;-72
2022/05/20 02:53:39;;;;;;;30.13;26.43;;;;;;;;;;4993552;28;20278;-72
2022/05/20 02:56:09;;;;;;;29.60;26.53;;;;;;;;;;4994498;28;20236;-73
2022/05/20 03:04:12;;;;;;;25.40;22.80;;;;;;;;;;4993363;28;20231;-71
2022/05/20 03:06:42;;;;;;;23.53;21.07;;;;;;;;;;4993615;28;20205;-71
2022/05/20 03:09:11;;;;;;;23.20;21.10;;;;;;;;;;4992216;28;20644;-72
2022/05/20 03:11:41;;;;;;;24.73;22.23;;;;;;;;;;4993445;28;20290;-72
2022/05/20 03:14:10;;;;;;;24.43;21.90;;;;;;;;;;4991260;28;20209;-72
2022/05/20 03:16:39;;;;;;;25.30;21.97;;;;;;;;;;4993439;28;20213;-71
2022/05/20 03:19:07;;;;;;;24.20;21.73;;;;;;;;;;4991988;28;20291;-71
2022/05/20 03:21:37;;;;;;;23.27;20.93;;;;;;;;;;4993194;28;20205;-71
2022/05/20 03:24:06;;;;;;;22.07;19.80;;;;;;;;;;4991843;28;20213;-71
2022/05/20 03:26:35;;;;;;;21.63;19.43;;;;;;;;;;4991728;28;20248;-72
2022/05/20 03:29:06;;;;;;;21.43;19.30;;;;;;;;;;4992325;28;20256;-72
2022/05/20 03:31:35;;;;;;;20.77;18.77;;;;;;;;;;4993272;28;20256;-72
2022/05/20 03:34:06;;;;;;;19.70;17.80;;;;;;;;;;4991717;28;20263;-71
2022/05/20 03:36:35;;;;;;;21.03;18.97;;;;;;;;;;4991748;28;20201;-71
2022/05/20 03:39:03;;;;;;;20.37;18.47;;;;;;;;;;4993336;28;20225;-71
2022/05/20 03:41:32;;;;;;;18.77;17.17;;;;;;;;;;4991800;28;20205;-71
2022/05/20 03:44:03;;;;;;;20.07;17.97;;;;;;;;;;4994679;28;20207;-72
2022/05/20 03:46:34;;;;;;;18.50;16.60;;;;;;;;;;4996663;28;20201;-71
2022/05/20 03:49:02;;;;;;;19.60;17.87;;;;;;;;;;4995293;28;20224;-71
2022/05/20 03:51:31;;;;;;;18.50;16.73;;;;;;;;;;4996711;28;20710;-71
2022/05/20 03:53:59;;;;;;;18.03;16.23;;;;;;;;;;4995056;28;20275;-72
2022/05/20 03:56:28;;;;;;;17.10;15.37;;;;;;;;;;4996444;28;20205;-72
2022/05/20 03:58:56;;;;;;;17.67;15.87;;;;;;;;;;4996461;28;20365;-72
2022/05/20 04:04:12;;;;;;;15.87;14.27;;;;;;;;;;4994244;28;20209;-71
2022/05/20 04:06:41;;;;;;;15.43;14.03;;;;;;;;;;4995389;28;20197;-71
2022/05/20 04:09:09;;;;;;;15.93;14.43;;;;;;;;;;4994514;28;20228;-72
2022/05/20 04:11:38;;;;;;;16.00;14.40;;;;;;;;;;4994225;28;20259;-71
2022/05/20 04:14:07;;;;;;;15.73;14.03;;;;;;;;;;4992369;28;20639;-72
2022/05/20 04:16:35;;;;;;;15.53;14.07;;;;;;;;;;4994910;28;20198;-72
2022/05/20 04:19:04;;;;;;;15.37;13.80;;;;;;;;;;5009323;28;20297;-71
2022/05/20 04:21:34;;;;;;;16.23;13.97;;;;;;;;;;4994940;28;20237;-72
2022/05/20 04:24:04;;;;;;;16.73;14.30;;;;;;;;;;4993908;28;20244;-71
2022/05/20 04:26:33;;;;;;;17.20;15.40;;;;;;;;;;4996183;28;20542;-72
2022/05/20 04:29:02;;;;;;;16.60;15.07;;;;;;;;;;4994275;28;20557;-72
2022/05/20 04:31:30;;;;;;;18.63;16.93;;;;;;;;;;4997722;28;20257;-72
2022/05/20 04:33:59;;;;;;;18.87;17.17;;;;;;;;;;4992442;28;20288;-72
2022/05/20 04:36:27;;;;;;;20.07;17.97;;;;;;;;;;4993177;28;20206;-71
2022/05/20 04:38:57;;;;;;;20.07;18.00;;;;;;;;;;4995176;28;20261;-72
2022/05/20 04:46:58;;;;;;;24.40;21.47;;;;;;;;;;4994010;28;20213;-72
2022/05/20 04:49:27;;;;;;;21.87;19.60;;;;;;;;;;4993739;28;20221;-72
2022/05/20 04:51:55;;;;;;;23.50;21.10;;;;;;;;;;4994411;28;20611;-72
2022/05/20 04:57:11;;;;;;;23.03;20.70;;;;;;;;;;4995840;28;20271;-72
2022/05/20 04:59:40;;;;;;;23.60;21.20;;;;;;;;;;4994138;28;20279;-72
2022/05/20 05:02:08;;;;;;;22.33;20.20;;;;;;;;;;4992979;28;20260;-71
2022/05/20 05:04:37;;;;;;;22.07;19.77;;;;;;;;;;4993802;28;20690;-71
2022/05/20 05:07:09;;;;;;;21.90;19.23;;;;;;;;;;4993178;28;20209;-72
2022/05/20 05:09:39;;;;;;;20.80;18.90;;;;;;;;;;4993740;28;20209;-72
2022/05/20 05:12:09;;;;;;;20.77;18.87;;;;;;;;;;4990393;28;20657;-72
2022/05/20 05:14:43;;;;;;;20.17;18.17;;;;;;;;;;4988460;28;20225;-72
2022/05/20 05:17:13;;;;;;;18.93;17.13;;;;;;;;;;4992439;28;20758;-73
2022/05/20 05:19:42;;;;;;;19.20;17.20;;;;;;;;;;4991103;28;20327;-72
2022/05/20 05:22:10;;;;;;;19.90;16.73;;;;;;;;;;4993683;28;20224;-71
2022/05/20 05:24:40;;;;;;;17.57;15.87;;;;;;;;;;4992357;28;20228;-72
2022/05/20 05:27:09;;;;;;;17.00;15.40;;;;;;;;;;4992337;28;21169;-71
2022/05/20 05:29:39;;;;;;;17.17;14.90;;;;;;;;;;4992091;28;20209;-72
2022/05/20 05:32:08;;;;;;;16.43;14.80;;;;;;;;;;4980283;28;20209;-71
2022/05/20 05:34:36;;;;;;;15.80;14.30;;;;;;;;;;4993382;28;20229;-72
2022/05/20 05:37:05;;;;;;;16.23;14.63;;;;;;;;;;4994504;28;20573;-72
2022/05/20 05:39:34;;;;;;;16.67;14.03;;;;;;;;;;4991453;28;20213;-72
2022/05/20 05:42:17;;;;;;;15.33;13.77;;;;;;;;;;4989577;28;20695;-72
2022/05/20 05:44:53;;;;;;;15.20;13.70;;;;;;;;;;4993586;28;20197;-72
2022/05/20 05:47:22;;;;;;;14.60;13.17;;;;;;;;;;4994438;28;20225;-73
2022/05/20 05:49:50;;;;;;;13.33;12.03;;;;;;;;;;4993861;28;20256;-72
2022/05/20 05:52:19;;;;;;;13.60;12.40;;;;;;;;;;4994961;28;20217;-72
2022/05/20 05:54:47;;;;;;;13.47;12.17;;;;;;;;;;4994753;28;20771;-72
2022/05/20 05:57:17;;;;;;;13.20;11.80;;;;;;;;;;4992612;28;20217;-72
2022/05/20 05:59:45;;;;;;;13.43;12.10;;;;;;;;;;4993919;28;20563;-71
2022/05/20 06:02:13;;;;;;;12.47;11.30;;;;;;;;;;4994109;28;20205;-72
2022/05/20 06:04:43;;;;;;;12.13;10.90;;;;;;;;;;4993568;28;20197;-72
2022/05/20 06:07:12;;;;;;;10.13;9.23;;;;;;;;;;4994176;28;20283;-72
2022/05/20 06:09:40;;;;;;;7.70;7.00;;;;;;;;;;4994018;28;20252;-71
2022/05/20 06:12:09;;;;;;;10.90;8.33;;;;;;;;;;4993526;28;20245;-72
2022/05/20 06:14:39;;;;;;;10.57;7.87;;;;;;;;;;4993596;28;20213;-72
2022/05/20 06:17:11;;;;;;;10.70;9.10;;;;;;;;;;4994319;28;20208;-72
2022/05/20 06:19:40;;;;;;;8.53;7.73;;;;;;;;;;4993573;28;20201;-72
2022/05/20 06:22:09;;;;;;;8.30;7.47;;;;;;;;;;4993998;28;20251;-72
2022/05/20 06:24:37;;;;;;;8.87;7.97;;;;;;;;;;4993516;28;20193;-72
2022/05/20 06:27:06;;;;;;;9.00;8.07;;;;;;;;;;4993061;28;20235;-73
2022/05/20 06:29:35;;;;;;;9.80;8.50;;;;;;;;;;4993679;28;20268;-72
2022/05/20 06:32:06;;;;;;;8.93;8.03;;;;;;;;;;4994003;28;20255;-72
2022/05/20 06:40:08;;;;;;;9.83;8.30;;;;;;;;;;5000199;28;20205;-72
2022/05/20 06:42:37;;;;;;;9.97;8.60;;;;;;;;;;4993268;28;20630;-73
2022/05/20 06:45:06;;;;;;;10.37;8.87;;;;;;;;;;4992933;28;20244;-72
2022/05/20 06:47:36;;;;;;;11.33;8.53;;;;;;;;;;5012895;28;20707;-73
2022/05/20 06:50:05;;;;;;;8.70;8.00;;;;;;;;;;5005803;28;20267;-72
2022/05/20 06:52:34;;;;;;;10.10;8.68;;;;;;;;;;4992512;28;20197;-73
2022/05/20 06:55:07;;;;;;;10.73;9.52;;;;;;;;;;4993380;28;20715;-72
2022/05/20 06:57:39;;;;;;;8.98;8.20;;;;;;;;;;4993416;28;20635;-72
2022/05/20 07:00:10;;;;;;;9.38;8.15;;;;;;;;;;4987795;28;20660;-72
2022/05/20 07:02:40;;;;;;;8.43;7.63;;;;;;;;;;4993364;28;20209;-72
2022/05/20 07:05:10;;;;;;;9.43;7.68;;;;;;;;;;4992721;28;20208;-72
2022/05/20 07:07:39;;;;;;;7.93;7.10;;;;;;;;;;4993203;28;20317;-73
2022/05/20 07:10:09;;;;;;;8.55;7.32;;;;;;;;;;4992448;28;20263;-72
2022/05/20 07:12:38;;;;;;;8.35;7.50;;;;;;;;;;4993216;28;20557;-72
2022/05/20 07:15:07;;;;;;;9.10;8.20;;;;;;;;;;4994369;28;20225;-72
2022/05/20 07:17:36;;;;;;;8.20;7.40;;;;;;;;;;4997072;28;20275;-72
2022/05/20 07:20:06;;;;;;;10.45;7.90;;;;;;;;;;4996857;28;20205;-72
2022/05/20 07:22:35;;;;;;;9.00;8.05;;;;;;;;;;4996536;28;20248;-73
2022/05/20 07:25:04;;;;;;;9.00;8.02;;;;;;;;;;4996417;28;20204;-72
2022/05/20 07:27:32;;;;;;;8.18;7.38;;;;;;;;;;4996669;28;20229;-72
2022/05/20 07:30:01;;;;;;;8.10;7.38;;;;;;;;;;4996533;28;20210;-72
2022/05/20 07:32:29;;;;;;;8.13;7.43;;;;;;;;;;4996174;28;20235;-73
2022/05/20 07:34:58;;;;;;;9.07;7.20;;;;;;;;;;4996591;28;20228;-72
2022/05/20 07:37:28;;;;;;;9.27;6.57;;;;;;;;;;4996913;28;20284;-72
2022/05/20 07:39:57;;;;;;;7.95;7.15;;;;;;;;;;4995476;28;20237;-72
2022/05/20 07:42:25;;;;;;;8.10;7.30;;;;;;;;;;4996681;28;20216;-73
2022/05/20 07:44:54;;;;;;;9.48;7.72;;;;;;;;;;4996383;28;20201;-73
2022/05/20 07:47:24;;;;;;;9.38;6.90;;;;;;;;;;4995985;28;20271;-72
2022/05/20 07:49:52;;;;;;;8.60;7.40;;;;;;;;;;4996712;28;20627;-73
2022/05/20 07:55:06;;;;;;;8.45;7.18;;;;;;;;;;4984508;28;20224;-73
2022/05/20 07:57:35;;;;;;;8.52;7.55;;;;;;;;;;4994517;28;20225;-73
2022/05/20 08:00:04;;;;;;;9.23;7.40;;;;;;;;;;4995996;28;20561;-73
2022/05/20 08:02:33;;;;;;;9.20;7.10;;;;;;;;;;4996218;28;20209;-73
2022/05/20 08:05:02;;;;;;;7.10;6.50;;;;;;;;;;4994691;28;20264;-72
2022/05/20 08:07:32;;;;;;;8.13;7.32;;;;;;;;;;4996404;28;20244;-72
2022/05/20 08:10:02;;;;;;;8.25;7.45;;;;;;;;;;4995753;28;20243;-71
2022/05/20 08:12:31;;;;;;;8.32;7.53;;;;;;;;;;4995229;28;20251;-73
2022/05/20 08:15:00;;;;;;;8.50;7.63;;;;;;;;;;4995299;28;20272;-72
2022/05/20 08:17:29;;;;;;;7.40;6.70;;;;;;;;;;4996000;28;20217;-72
2022/05/20 08:19:58;;;;;;;7.50;6.90;;;;;;;;;;4995883;28;20209;-72
2022/05/20 08:22:26;;;;;;;7.65;6.85;;;;;;;;;;4996046;28;20627;-72
2022/05/20 08:24:57;;;;;;;7.55;6.63;;;;;;;;;;4995430;28;20193;-72
2022/05/20 08:27:28;;;;;;;7.57;6.90;;;;;;;;;;4998178;28;20275;-72
2022/05/20 08:29:58;;;;;;;8.10;7.13;;;;;;;;;;4994531;28;20572;-72
2022/05/20 08:32:27;;;;;;;8.13;6.82;;;;;;;;;;4994896;28;20260;-72
2022/05/20 08:34:56;;;;;;;6.93;6.32;;;;;;;;;;4995546;28;20225;-73
2022/05/20 08:37:24;;;;;;;6.93;6.40;;;;;;;;;;4991051;28;20249;-73
2022/05/20 08:39:52;;;;;;;6.97;6.32;;;;;;;;;;4995292;28;20547;-73
2022/05/20 08:42:29;;;;;;;6.90;6.20;;;;;;;;;;4995134;28;20691;-73
2022/05/20 08:44:59;;;;;;;6.80;6.20;;;;;;;;;;4995535;28;20225;-73
2022/05/20 08:47:29;;;;;;;7.10;6.43;;;;;;;;;;4995278;28;20229;-73
2022/05/20 08:49:59;;;;;;;8.05;6.70;;;;;;;;;;4995162;28;20673;-73
2022/05/20 08:52:28;;;;;;;8.48;7.05;;;;;;;;;;4994732;28;20197;-73
2022/05/20 08:54:57;;;;;;;7.03;6.43;;;;;;;;;;4995086;28;20271;-73
2022/05/20 08:57:45;;;;;;;6.55;6.03;;;;;;;;;;4996814;28;20252;-73
2022/05/20 09:00:15;;;;;;;7.85;6.65;;;;;;;;;;4996137;28;20209;-72
2022/05/20 09:02:44;;;;;;;7.13;6.43;;;;;;;;;;4994433;28;20598;-72
2022/05/20 09:05:21;;;;;;;6.50;5.97;;;;;;;;;;4995165;28;20232;-73
2022/05/20 09:08:10;;;;;;;7.07;5.95;;;;;;;;;;4994644;28;20766;-73
2022/05/20 09:10:43;;;;;;;6.35;5.85;;;;;;;;;;4991387;28;20197;-73
2022/05/20 09:13:13;;;;;;;6.60;5.90;;;;;;;;;;4992917;28;20209;-71
2022/05/20 09:15:46;;;;;;;6.20;5.60;;;;;;;;;;4992882;28;20225;-73
2022/05/20 09:18:19;;;;;;;6.90;6.20;;;;;;;;;;4994921;28;20705;-72
2022/05/20 09:20:49;;;;;;;6.53;5.85;;;;;;;;;;4994747;28;20267;-72
2022/05/20 09:23:20;;;;;;;8.48;6.15;;;;;;;;;;4994876;28;20229;-72
2022/05/20 09:25:51;;;;;;;6.50;5.85;;;;;;;;;;4994198;28;20247;-72
2022/05/20 09:28:24;;;;;;;8.10;5.15;;;;;;;;;;4994642;28;20762;-72
2022/05/20 09:30:56;;;;;;;6.30;5.68;;;;;;;;;;4994967;28;20201;-73
2022/05/20 09:33:26;;;;;;;7.18;6.00;;;;;;;;;;4994801;28;20232;-73
2022/05/20 09:35:57;;;;;;;6.57;5.97;;;;;;;;;;4994497;28;20221;-72
2022/05/20 09:38:33;;;;;;;5.50;4.90;;;;;;;;;;4994106;28;20225;-72
2022/05/20 09:41:10;;;;;;;5.82;4.90;;;;;;;;;;4993895;28;20211;-72
2022/05/20 09:43:40;;;;;;;5.45;4.82;;;;;;;;;;4994527;28;20213;-72
2022/05/20 09:46:26;;;;;;;5.80;4.70;;;;;;;;;;4994649;28;20289;-72
2022/05/20 09:48:58;;;;;;;4.55;4.15;;;;;;;;;;4992040;28;20236;-72
2022/05/20 09:51:30;;;;;;;4.95;4.55;;;;;;;;;;4994093;28;20201;-72
2022/05/20 09:54:04;;;;;;;4.70;4.30;;;;;;;;;;4994285;28;20190;-72
2022/05/20 09:56:34;;;;;;;5.25;4.60;;;;;;;;;;4994902;28;20225;-73
2022/05/20 09:59:10;;;;;;;4.75;4.10;;;;;;;;;;4995735;28;20299;-72
2022/05/20 10:01:40;;;;;;;6.40;4.30;;;;;;;;;;4993174;28;20212;-72
2022/05/20 10:04:17;;;;;;;4.82;4.03;;;;;;;;;;4994159;28;20247;-72
2022/05/20 10:06:50;;;;;;;3.80;3.50;;;;;;;;;;4994267;28;20208;-72
2022/05/20 10:09:27;;;;;;;5.65;4.00;;;;;;;;;;4992783;28;20229;-72
2022/05/20 10:11:58;;;;;;;4.97;3.50;;;;;;;;;;4994065;28;20256;-73
2022/05/20 10:14:29;;;;;;;5.32;3.92;;;;;;;;;;4993841;28;20213;-73
2022/05/20 10:17:00;;;;;;;4.38;3.75;;;;;;;;;;4994314;28;20592;-72
2022/05/20 10:19:35;;;;;;;5.30;3.97;;;;;;;;;;4994167;28;20595;-72
2022/05/20 10:22:06;;;;;;;4.97;3.90;;;;;;;;;;4993112;28;20687;-72
2022/05/20 10:24:41;;;;;;;4.05;3.65;;;;;;;;;;4993685;28;20205;-72
2022/05/20 10:27:11;;;;;;;5.57;3.40;;;;;;;;;;4993352;28;20247;-72
2022/05/20 10:32:36;;;;;;;4.07;3.60;;;;;;;;;;4983348;28;20201;-72
2022/05/20 10:35:07;;;;;;;5.03;3.40;;;;;;;;;;4993050;28;20212;-72
2022/05/20 10:37:43;;;;;;;6.05;3.65;;;;;;;;;;4993148;28;20225;-72
2022/05/20 10:40:30;;;;;;;5.05;3.63;;;;;;;;;;4993684;28;20201;-73
2022/05/20 10:43:09;;;;;;;3.88;3.58;;;;;;;;;;4992623;28;20209;-72
2022/05/20 10:48:38;;;;;;;4.93;3.63;;;;;;;;;;4993459;28;20316;-72
2022/05/20 10:51:13;;;;;;;4.68;4.07;;;;;;;;;;4994982;28;20212;-72
2022/05/20 10:53:47;;;;;;;4.82;3.90;;;;;;;;;;4996132;28;20204;-72
2022/05/20 10:56:30;;;;;;;5.30;3.97;;;;;;;;;;4997701;28;20217;-72
2022/05/20 10:59:08;;;;;;;8.57;3.90;;;;;;;;;;4997807;28;20225;-72
2022/05/20 11:01:42;;;;;;;3.58;3.28;;;;;;;;;;4997322;28;20205;-72
2022/05/20 11:04:21;;;;;;;4.15;3.75;;;;;;;;;;4994915;28;20569;-72
2022/05/20 11:07:02;;;;;;;6.25;3.88;;;;;;;;;;4991475;28;20216;-72
2022/05/20 11:09:34;;;;;;;5.55;3.75;;;;;;;;;;4993722;28;20201;-72
2022/05/20 11:12:04;;;;;;;4.60;3.90;;;;;;;;;;4991460;28;20205;-72
2022/05/20 11:14:45;;;;;;;3.75;3.45;;;;;;;;;;4988554;28;20201;-71
2022/05/20 11:17:21;;;;;;;4.50;4.10;;;;;;;;;;4992496;28;20280;-73
2022/05/20 11:20:04;;;;;;;5.30;3.67;;;;;;;;;;4982932;28;20201;-72
2022/05/20 11:22:43;;;;;;;4.05;3.00;;;;;;;;;;4989524;28;20201;-72
2022/05/20 11:25:24;;;;;;;4.32;3.80;;;;;;;;;;4996727;28;20205;-72
2022/05/20 11:28:07;;;;;;;3.95;3.13;;;;;;;;;;4997016;28;20274;-72
2022/05/20 11:30:49;;;;;;;6.38;3.70;;;;;;;;;;4993164;28;20201;-73
2022/05/20 11:33:32;;;;;;;3.65;3.30;;;;;;;;;;4996371;28;20235;-73
2022/05/20 11:36:12;;;;;;;4.57;3.67;;;;;;;;;;4992403;28;20221;-72
2022/05/20 11:38:49;;;;;;;5.30;3.88;;;;;;;;;;4996796;28;20229;-73
2022/05/20 11:41:23;;;;;;;3.90;3.40;;;;;;;;;;4992477;28;20228;-73
2022/05/20 11:44:13;;;;;;;5.00;3.88;;;;;;;;;;4993085;28;20201;-72
2022/05/20 11:46:49;;;;;;;4.00;3.47;;;;;;;;;;4990852;28;20201;-73
2022/05/20 11:49:35;;;;;;;4.40;4.00;;;;;;;;;;4997485;28;20205;-72
2022/05/20 11:52:18;;;;;;;4.35;3.28;;;;;;;;;;4990922;28;20209;-73
2022/05/20 11:54:51;;;;;;;4.05;2.75;;;;;;;;;;4972555;28;20205;-72
2022/05/20 11:57:23;;;;;;;3.50;3.08;;;;;;;;;;4993570;28;20228;-72
2022/05/20 11:59:55;;;;;;;3.38;2.70;;;;;;;;;;4992249;28;20205;-73
2022/05/20 12:02:27;;;;;;;4.30;2.90;;;;;;;;;;4993692;28;20282;-74
2022/05/20 12:04:55;;;;;;;2.88;2.35;;;;;;;;;;4990484;28;20197;-73
2022/05/20 12:07:24;;;;;;;2.53;2.20;;;;;;;;;;4994135;28;20229;-72
2022/05/20 12:09:55;;;;;;;3.13;2.80;;;;;;;;;;4989146;28;20217;-73
2022/05/20 12:12:33;;;;;;;2.80;2.55;;;;;;;;;;4995211;28;20216;-72
2022/05/20 12:15:44;;;;;;;4.03;2.55;;;;;;;;;;4995900;28;20205;-71
2022/05/20 12:24:31;;;;;;;4.32;2.78;;;;;;;;;;4991380;28;20209;-71
2022/05/20 12:27:02;;;;;;;4.22;2.70;;;;;;;;;;4990314;28;20203;-72
2022/05/20 12:29:45;;;;;;;2.42;2.20;;;;;;;;;;4991822;28;20205;-72
2022/05/20 12:32:29;;;;;;;3.05;2.35;;;;;;;;;;4995840;28;20236;-72
2022/05/20 12:35:05;;;;;;;4.22;2.05;;;;;;;;;;4994152;28;20213;-72
2022/05/20 12:37:53;;;;;;;2.85;2.00;;;;;;;;;;4992877;28;20264;-71
2022/05/20 12:40:42;;;;;;;5.22;2.13;;;;;;;;;;4994614;28;20649;-73
2022/05/20 12:43:12;;;;;;;3.28;2.08;;;;;;;;;;4996896;28;20213;-72
2022/05/20 12:45:47;;;;;;;3.28;2.45;;;;;;;;;;4996695;28;20613;-72
2022/05/20 12:48:16;;;;;;;3.35;2.30;;;;;;;;;;4995483;28;20221;-72
2022/05/20 12:50:45;;;;;;;2.45;2.17;;;;;;;;;;4995246;28;20217;-72
2022/05/20 12:53:15;;;;;;;4.10;2.40;;;;;;;;;;4995427;28;20320;-72
2022/05/20 12:55:45;;;;;;;4.00;2.42;;;;;;;;;;4994061;28;20260;-73
2022/05/20 12:58:16;;;;;;;2.13;1.90;;;;;;;;;;4993738;28;20241;-72
2022/05/20 13:00:45;;;;;;;2.60;2.08;;;;;;;;;;4991253;28;20337;-72
2022/05/20 13:03:16;;;;;;;3.03;2.20;;;;;;;;;;4991030;28;20263;-71
2022/05/20 13:05:49;;;;;;;3.22;2.45;;;;;;;;;;4995086;28;20699;-71
2022/05/20 13:08:25;;;;;;;2.45;2.10;;;;;;;;;;4987896;28;20324;-71
2022/05/20 13:10:54;;;;;;;4.68;2.63;;;;;;;;;;4990419;28;20209;-72
2022/05/20 13:13:25;;;;;;;4.20;3.15;;;;;;;;;;4993932;28;20209;-71
2022/05/20 13:15:56;;;;;;;3.95;3.30;;;;;;;;;;4646013;28;9999949;-72
2022/05/20 13:18:26;;;;;;;5.45;3.85;;;;;;;;;;4989480;28;20715;-72
2022/05/20 13:20:56;;;;;;;5.45;3.22;;;;;;;;;;4986155;28;20216;-71
2022/05/20 13:23:28;;;;;;;3.53;3.20;;;;;;;;;;4988961;28;20201;-72
2022/05/20 13:25:56;;;;;;;4.72;3.00;;;;;;;;;;4999317;28;20246;-72
2022/05/20 13:28:28;;;;;;;4.50;3.13;;;;;;;;;;4992053;28;20233;-72
2022/05/20 13:31:04;;;;;;;5.40;3.70;;;;;;;;;;4989894;28;20205;-72
2022/05/20 13:33:33;;;;;;;6.82;3.67;;;;;;;;;;4990949;28;20723;-72
2022/05/20 13:36:02;;;;;;;3.63;2.92;;;;;;;;;;4981865;28;20234;-72
2022/05/20 13:38:32;;;;;;;3.60;2.90;;;;;;;;;;4991905;28;20240;-72
2022/05/20 13:41:01;;;;;;;6.20;3.05;;;;;;;;;;4990331;28;20201;-72
2022/05/20 13:43:35;;;;;;;3.53;2.92;;;;;;;;;;4989148;28;20217;-71
2022/05/20 13:51:42;;;;;;;4.13;2.67;;;;;;;;;;4991599;28;20209;-72
2022/05/20 13:54:12;;;;;;;2.88;2.50;;;;;;;;;;4990862;28;20255;-72
2022/05/20 13:56:42;;;;;;;3.05;2.50;;;;;;;;;;4990869;28;20216;-72
2022/05/20 13:59:21;;;;;;;2.85;2.65;;;;;;;;;;4988949;28;20718;-72
2022/05/20 14:01:52;;;;;;;3.13;2.38;;;;;;;;;;4991108;28;20259;-72
2022/05/20 14:04:31;;;;;;;3.40;2.38;;;;;;;;;;4988848;28;20252;-72
2022/05/20 14:07:00;;;;;;;5.75;2.53;;;;;;;;;;4990534;28;20213;-73
2022/05/20 14:09:28;;;;;;;8.38;2.75;;;;;;;;;;4990286;28;20256;-72
2022/05/20 14:11:57;;;;;;;4.40;3.08;;;;;;;;;;4987131;28;20217;-71
2022/05/20 14:14:29;;;;;;;3.20;3.00;;;;;;;;;;4989578;28;20204;-72
2022/05/20 14:16:59;;;;;;;3.45;2.78;;;;;;;;;;4992889;28;20240;-72
2022/05/20 14:19:29;;;;;;;4.57;2.78;;;;;;;;;;4993018;28;20268;-72
2022/05/20 14:22:00;;;;;;;3.83;2.90;;;;;;;;;;4990321;28;20205;-73
2022/05/20 14:24:32;;;;;;;4.57;3.10;;;;;;;;;;4983171;28;20205;-72
2022/05/20 14:27:10;;;;;;;6.30;3.15;;;;;;;;;;4989426;28;20625;-73
2022/05/20 14:29:40;;;;;;;4.32;3.25;;;;;;;;;;4991460;28;20725;-72
2022/05/20 14:32:10;;;;;;;3.70;3.15;;;;;;;;;;4986057;28;20236;-71
2022/05/20 14:34:41;;;;;;;3.50;3.00;;;;;;;;;;4984676;28;20209;-72
2022/05/20 14:37:13;;;;;;;3.60;3.10;;;;;;;;;;4993290;28;20229;-71
2022/05/20 14:39:42;;;;;;;3.67;3.17;;;;;;;;;;4992869;28;20221;-71
2022/05/20 14:42:19;;;;;;;5.38;3.17;;;;;;;;;;4987635;28;20616;-72
2022/05/20 14:44:54;;;;;;;3.47;3.15;;;;;;;;;;4984556;28;20204;-71
2022/05/20 14:47:25;;;;;;;5.53;3.67;;;;;;;;;;4992013;28;20228;-72
2022/05/20 14:49:55;;;;;;;5.30;3.80;;;;;;;;;;4990916;28;20711;-72
2022/05/20 14:52:31;;;;;;;5.00;3.92;;;;;;;;;;4973985;28;20230;-72
2022/05/20 14:55:01;;;;;;;4.00;3.65;;;;;;;;;;4987647;28;20201;-72
2022/05/20 14:57:30;;;;;;;5.47;3.88;;;;;;;;;;4993369;28;20221;-72
2022/05/20 15:02:58;;;;;;;4.82;3.95;;;;;;;;;;5147500;27;20631;-72
2022/05/20 15:05:29;;;;;;;5.10;4.43;;;;;;;;;;5146639;27;20206;-73
2022/05/20 15:08:03;;;;;;;5.18;4.63;;;;;;;;;;5161351;27;20222;-73
2022/05/20 15:10:32;;;;;;;6.30;5.32;;;;;;;;;;5168307;27;20199;-74
2022/05/20 15:13:01;;;;;;;6.53;5.15;;;;;;;;;;5170864;27;20203;-72
2022/05/20 15:15:29;;;;;;;6.57;5.10;;;;;;;;;;5170147;27;20447;-73
2022/05/20 15:18:06;;;;;;;5.95;5.45;;;;;;;;;;5170601;27;20226;-73
2022/05/20 15:20:37;;;;;;;7.03;6.38;;;;;;;;;;5172420;27;20194;-73
2022/05/20 15:23:07;;;;;;;6.80;6.00;;;;;;;;;;5166843;27;20234;-73
2022/05/20 15:25:36;;;;;;;7.20;6.45;;;;;;;;;;5172700;27;20236;-73
2022/05/20 15:28:47;;;;;;;6.65;6.05;;;;;;;;;;5171795;27;20230;-73
2022/05/20 15:34:51;;;;;;;7.63;6.63;;;;;;;;;;5164933;27;20281;-72
2022/05/20 15:36:25;;;;;;;8.40;7.57;;;;;;;;;;5132653;27;20243;-73
2022/05/20 15:38:54;;;;;;;10.15;7.95;;;;;;;;;;5171514;27;20215;-73
2022/05/20 15:41:22;;;;;;;8.20;7.38;;;;;;;;;;5160556;27;20700;-73
2022/05/20 15:43:51;;;;;;;10.65;8.68;;;;;;;;;;5168944;27;20674;-73
2022/05/20 15:46:19;;;;;;;10.23;9.27;;;;;;;;;;4810035;27;10001236;-73